Time;durP1;ratioP1;P1;durP2;ratioP2;P2;SDS_P1;SDS_P2;PMS_P1;PMS_P2;Temp;Humidity;BMP_temperature;BMP_pressure;BME280_temperature;BME280_humidity;BME280_pressure;Samples;Min_cycle;Max_cycle;Signal;HPM_P1;HPM_P2
2021/12/04 00:00:14;;;;;;;10.40;3.30;;;;;;;;;;5033426;28;20505;-54
2021/12/04 00:02:40;;;;;;;4.70;3.85;;;;;;;;;;5035827;28;20093;-55
2021/12/04 00:05:07;;;;;;;3.97;2.85;;;;;;;;;;5035242;28;20030;-55
2021/12/04 00:07:34;;;;;;;6.68;3.28;;;;;;;;;;5032980;28;20029;-54
2021/12/04 00:10:03;;;;;;;3.65;3.13;;;;;;;;;;5033984;28;20043;-52
2021/12/04 00:12:31;;;;;;;4.22;3.33;;;;;;;;;;5032793;28;20025;-52
2021/12/04 00:14:57;;;;;;;3.80;2.95;;;;;;;;;;5034286;28;20033;-55
2021/12/04 00:17:22;;;;;;;5.47;2.90;;;;;;;;;;5035365;28;20037;-54
2021/12/04 00:19:48;;;;;;;2.95;2.50;;;;;;;;;;5037097;28;20485;-54
2021/12/04 00:22:13;;;;;;;3.88;2.83;;;;;;;;;;5037922;28;20047;-54
2021/12/04 00:24:39;;;;;;;3.47;2.90;;;;;;;;;;5039738;28;20104;-53
2021/12/04 00:27:04;;;;;;;3.55;2.95;;;;;;;;;;5040313;28;20025;-52
2021/12/04 00:29:30;;;;;;;2.70;2.17;;;;;;;;;;5038058;28;20033;-53
2021/12/04 00:32:02;;;;;;;3.03;2.67;;;;;;;;;;5037897;28;20120;-50
2021/12/04 00:34:29;;;;;;;2.90;2.50;;;;;;;;;;5037688;28;20112;-53
2021/12/04 00:37:46;;;;;;;3.20;2.85;;;;;;;;;;5037359;28;20065;-51
2021/12/04 00:50:43;;;;;;;3.03;2.55;;;;;;;;;;5038165;28;20034;-52
2021/12/04 00:53:08;;;;;;;3.90;2.95;;;;;;;;;;5038884;28;20033;-47
2021/12/04 00:55:33;;;;;;;3.15;2.50;;;;;;;;;;5040205;28;20504;-46
2021/12/04 00:57:59;;;;;;;3.30;2.67;;;;;;;;;;5037464;28;20037;-46
2021/12/04 01:00:24;;;;;;;4.93;2.75;;;;;;;;;;5036368;28;20103;-48
2021/12/04 01:02:49;;;;;;;3.58;3.15;;;;;;;;;;5036542;28;20872;-45
2021/12/04 01:05:15;;;;;;;3.58;2.78;;;;;;;;;;5037353;28;20056;-47
2021/12/04 01:07:40;;;;;;;5.57;2.80;;;;;;;;;;5037627;28;20033;-47
2021/12/04 01:10:08;;;;;;;3.60;2.97;;;;;;;;;;5038899;28;20091;-45
2021/12/04 01:12:34;;;;;;;4.65;2.78;;;;;;;;;;5035721;28;20041;-45
2021/12/04 01:14:59;;;;;;;3.97;2.72;;;;;;;;;;5034749;28;20032;-46
2021/12/04 01:17:25;;;;;;;5.07;2.75;;;;;;;;;;5036395;28;20030;-46
2021/12/04 01:19:50;;;;;;;2.97;2.53;;;;;;;;;;5035786;28;20044;-45
2021/12/04 01:22:19;;;;;;;3.00;2.60;;;;;;;;;;5036312;28;20033;-45
2021/12/04 01:24:45;;;;;;;3.40;2.80;;;;;;;;;;5038001;28;20033;-44
2021/12/04 01:27:10;;;;;;;3.05;2.55;;;;;;;;;;5034277;28;20087;-45
2021/12/04 01:29:36;;;;;;;3.97;2.80;;;;;;;;;;5037836;28;20029;-45
2021/12/04 01:32:02;;;;;;;3.42;3.03;;;;;;;;;;5037680;28;20065;-45
2021/12/04 01:34:27;;;;;;;3.50;2.75;;;;;;;;;;5037944;28;20056;-44
2021/12/04 01:36:53;;;;;;;3.00;2.42;;;;;;;;;;5036562;28;20029;-45
2021/12/04 01:39:19;;;;;;;3.72;2.75;;;;;;;;;;5035262;28;20110;-47
2021/12/04 01:41:44;;;;;;;3.97;2.65;;;;;;;;;;5032696;28;20725;-48
2021/12/04 01:44:10;;;;;;;2.70;2.20;;;;;;;;;;5033250;28;20060;-44
2021/12/04 01:46:36;;;;;;;3.30;3.00;;;;;;;;;;5035829;28;20517;-47
2021/12/04 01:49:02;;;;;;;2.70;2.20;;;;;;;;;;5037154;28;20037;-46
2021/12/04 01:51:27;;;;;;;3.35;2.55;;;;;;;;;;5037471;28;20155;-46
2021/12/04 01:53:53;;;;;;;4.47;2.72;;;;;;;;;;5037116;28;20060;-46
2021/12/04 01:56:18;;;;;;;3.30;2.92;;;;;;;;;;5034569;28;20039;-45
2021/12/04 01:58:44;;;;;;;2.60;2.00;;;;;;;;;;5037024;28;20041;-47
2021/12/04 02:01:10;;;;;;;3.20;2.70;;;;;;;;;;5034264;28;20112;-47
2021/12/04 02:03:36;;;;;;;3.20;2.58;;;;;;;;;;5036041;28;20033;-47
2021/12/04 02:06:02;;;;;;;4.60;2.70;;;;;;;;;;5036955;28;20037;-46
2021/12/04 02:08:28;;;;;;;4.03;2.88;;;;;;;;;;5037606;28;20040;-51
2021/12/04 02:10:59;;;;;;;2.72;2.20;;;;;;;;;;5037766;28;20363;-46
2021/12/04 02:13:25;;;;;;;2.85;2.35;;;;;;;;;;5036457;28;20033;-46
2021/12/04 02:15:51;;;;;;;3.35;2.80;;;;;;;;;;5041769;28;20045;-45
2021/12/04 02:18:19;;;;;;;4.93;3.13;;;;;;;;;;5037239;28;20076;-45
2021/12/04 02:20:45;;;;;;;3.72;2.70;;;;;;;;;;5033470;28;20059;-44
2021/12/04 02:23:10;;;;;;;3.42;2.72;;;;;;;;;;5033795;28;20190;-46
2021/12/04 02:25:37;;;;;;;2.97;2.63;;;;;;;;;;5036830;28;20040;-44
2021/12/04 02:28:06;;;;;;;5.35;3.08;;;;;;;;;;5031991;28;20094;-44
2021/12/04 02:30:35;;;;;;;3.53;2.90;;;;;;;;;;5035930;28;20110;-46
2021/12/04 02:33:11;;;;;;;3.08;2.47;;;;;;;;;;5033414;28;20543;-44
2021/12/04 02:35:37;;;;;;;3.25;2.53;;;;;;;;;;5034819;28;20043;-45
2021/12/04 02:38:03;;;;;;;3.35;2.70;;;;;;;;;;5033241;28;20125;-43
2021/12/04 02:40:28;;;;;;;2.97;2.58;;;;;;;;;;5033934;28;20499;-45
2021/12/04 02:42:54;;;;;;;3.72;3.33;;;;;;;;;;5036328;28;20483;-45
2021/12/04 02:45:19;;;;;;;3.08;2.70;;;;;;;;;;5036161;28;20355;-44
2021/12/04 02:47:44;;;;;;;3.53;2.95;;;;;;;;;;5035745;28;20112;-45
2021/12/04 02:50:11;;;;;;;3.20;2.55;;;;;;;;;;5035041;28;20421;-46
2021/12/04 02:52:37;;;;;;;3.13;2.60;;;;;;;;;;5034742;28;20029;-45
2021/12/04 02:55:04;;;;;;;2.80;2.25;;;;;;;;;;5038168;28;20248;-45
2021/12/04 02:57:30;;;;;;;3.45;2.92;;;;;;;;;;5036464;28;20065;-49
2021/12/04 02:59:56;;;;;;;3.58;3.00;;;;;;;;;;5036558;28;20087;-44
2021/12/04 03:02:23;;;;;;;2.90;2.25;;;;;;;;;;5035930;28;20036;-44
2021/12/04 03:04:54;;;;;;;3.50;3.08;;;;;;;;;;5034465;28;20471;-45
2021/12/04 03:07:21;;;;;;;2.92;2.58;;;;;;;;;;5040020;28;20079;-44
2021/12/04 03:09:47;;;;;;;2.72;2.30;;;;;;;;;;5037991;28;20458;-45
2021/12/04 03:12:15;;;;;;;3.05;2.50;;;;;;;;;;5036948;28;20099;-47
2021/12/04 03:14:40;;;;;;;3.55;2.70;;;;;;;;;;5032626;28;20415;-49
2021/12/04 03:17:06;;;;;;;2.95;2.47;;;;;;;;;;5032566;28;20025;-46
2021/12/04 03:19:33;;;;;;;4.78;3.00;;;;;;;;;;5036626;28;20032;-49
2021/12/04 03:21:59;;;;;;;2.80;2.20;;;;;;;;;;5033555;28;20427;-47
2021/12/04 03:24:25;;;;;;;3.30;2.88;;;;;;;;;;5034080;28;20037;-47
2021/12/04 03:26:51;;;;;;;4.15;2.75;;;;;;;;;;5036405;28;20115;-47
2021/12/04 03:29:20;;;;;;;3.30;2.95;;;;;;;;;;5034897;28;20030;-47
2021/12/04 03:40:21;;;;;;;3.03;2.40;;;;;;;;;;5035743;28;20041;-47
2021/12/04 03:42:46;;;;;;;3.00;2.60;;;;;;;;;;5033856;28;20374;-47
2021/12/04 03:45:12;;;;;;;2.90;2.40;;;;;;;;;;5032770;28;20037;-45
2021/12/04 03:47:45;;;;;;;7.43;3.67;;;;;;;;;;5036206;28;20025;-47
2021/12/04 03:50:10;;;;;;;3.42;3.08;;;;;;;;;;5035297;28;20470;-46
2021/12/04 03:52:36;;;;;;;3.13;2.83;;;;;;;;;;5040555;28;20451;-47
2021/12/04 03:55:04;;;;;;;2.97;2.50;;;;;;;;;;5038709;28;20047;-48
2021/12/04 03:57:30;;;;;;;3.15;2.72;;;;;;;;;;5039144;28;20033;-48
2021/12/04 03:59:55;;;;;;;3.88;2.97;;;;;;;;;;5039906;28;20044;-46
2021/12/04 04:02:20;;;;;;;4.18;3.03;;;;;;;;;;5039084;28;20121;-47
2021/12/04 04:04:46;;;;;;;3.20;2.67;;;;;;;;;;5039234;28;20882;-47
2021/12/04 04:07:11;;;;;;;2.85;2.30;;;;;;;;;;5039662;28;20060;-47
2021/12/04 04:09:37;;;;;;;3.20;2.75;;;;;;;;;;5040739;28;20049;-48
2021/12/04 04:12:03;;;;;;;3.72;2.90;;;;;;;;;;5037871;28;20103;-46
2021/12/04 04:14:29;;;;;;;3.50;2.80;;;;;;;;;;5035945;28;20040;-46
2021/12/04 04:16:56;;;;;;;3.25;2.63;;;;;;;;;;5039066;28;20426;-47
2021/12/04 04:19:23;;;;;;;3.97;2.53;;;;;;;;;;5036948;28;20593;-49
2021/12/04 04:21:53;;;;;;;3.17;2.60;;;;;;;;;;5037863;28;20029;-46
2021/12/04 04:24:19;;;;;;;3.10;2.60;;;;;;;;;;5035531;28;20474;-46
2021/12/04 04:26:45;;;;;;;8.05;3.15;;;;;;;;;;5038855;28;20052;-46
2021/12/04 04:29:11;;;;;;;4.00;3.13;;;;;;;;;;5038426;28;20029;-45
2021/12/04 04:31:45;;;;;;;3.10;2.80;;;;;;;;;;5038077;28;20029;-47
2021/12/04 04:34:10;;;;;;;3.10;2.70;;;;;;;;;;5035773;28;20037;-46
2021/12/04 04:39:51;;;;;;;3.58;2.83;;;;;;;;;;5040275;28;20458;-46
2021/12/04 04:58:56;;;;;;;3.67;2.80;;;;;;;;;;5039479;28;20030;-46
2021/12/04 05:12:12;;;;;;;3.42;3.13;;;;;;;;;;5037662;28;20037;-45
2021/12/04 05:14:41;;;;;;;3.33;2.75;;;;;;;;;;5036166;28;20060;-46
2021/12/04 05:17:11;;;;;;;3.92;2.63;;;;;;;;;;5034432;28;20037;-45
2021/12/04 05:19:53;;;;;;;3.38;2.95;;;;;;;;;;5036496;28;20068;-46
2021/12/04 05:22:19;;;;;;;3.95;3.45;;;;;;;;;;5035638;28;20375;-44
2021/12/04 05:24:45;;;;;;;3.58;3.17;;;;;;;;;;5036252;28;20481;-45
2021/12/04 05:27:11;;;;;;;3.92;3.53;;;;;;;;;;5036781;28;20057;-46
2021/12/04 05:29:36;;;;;;;3.45;3.15;;;;;;;;;;5037413;28;20086;-46
2021/12/04 05:32:06;;;;;;;7.28;4.10;;;;;;;;;;5039454;28;20374;-46
2021/12/04 05:34:34;;;;;;;3.38;2.55;;;;;;;;;;5036171;28;20067;-46
2021/12/04 05:37:00;;;;;;;3.78;2.88;;;;;;;;;;5036076;28;20644;-45
2021/12/04 05:39:26;;;;;;;3.95;2.88;;;;;;;;;;5038262;28;20043;-45
2021/12/04 05:41:52;;;;;;;4.00;3.13;;;;;;;;;;5034407;28;20370;-46
2021/12/04 05:44:21;;;;;;;4.03;3.28;;;;;;;;;;5036333;28;20045;-49
2021/12/04 05:47:05;;;;;;;2.85;2.47;;;;;;;;;;5038081;28;20033;-45
2021/12/04 05:49:47;;;;;;;3.25;2.95;;;;;;;;;;5033604;28;20188;-46
2021/12/04 05:54:56;;;;;;;5.25;3.60;;;;;;;;;;5034030;28;20107;-44
2021/12/04 05:57:21;;;;;;;2.90;2.42;;;;;;;;;;5039188;28;20458;-45
2021/12/04 05:59:47;;;;;;;3.33;3.03;;;;;;;;;;5036221;28;20041;-46
2021/12/04 06:02:12;;;;;;;5.15;3.35;;;;;;;;;;5031370;28;20418;-44
2021/12/04 06:04:38;;;;;;;3.55;3.10;;;;;;;;;;5035335;28;20037;-45
2021/12/04 06:07:03;;;;;;;4.13;3.35;;;;;;;;;;5036107;28;20486;-45
2021/12/04 06:09:29;;;;;;;3.83;3.38;;;;;;;;;;5037188;28;20037;-45
2021/12/04 06:11:55;;;;;;;3.53;3.13;;;;;;;;;;5040050;28;20040;-44
2021/12/04 06:14:20;;;;;;;4.07;3.33;;;;;;;;;;5039584;28;20108;-45
2021/12/04 06:16:45;;;;;;;3.47;2.90;;;;;;;;;;5037061;28;20336;-48
2021/12/04 06:19:14;;;;;;;3.53;2.88;;;;;;;;;;5037547;28;20025;-45
2021/12/04 06:24:24;;;;;;;5.07;3.47;;;;;;;;;;5037251;28;20120;-46
2021/12/04 06:26:49;;;;;;;4.20;3.00;;;;;;;;;;5038579;28;20107;-46
2021/12/04 06:29:15;;;;;;;3.65;2.95;;;;;;;;;;5036664;28;20057;-49
2021/12/04 06:31:40;;;;;;;3.00;2.63;;;;;;;;;;5037143;28;20105;-46
2021/12/04 06:34:05;;;;;;;3.95;3.17;;;;;;;;;;5031900;28;20406;-45
2021/12/04 06:36:31;;;;;;;4.15;3.05;;;;;;;;;;5037497;28;20041;-46
2021/12/04 06:38:56;;;;;;;3.40;3.10;;;;;;;;;;5035478;28;20198;-46
2021/12/04 06:41:22;;;;;;;3.63;2.97;;;;;;;;;;5034659;28;20076;-44
2021/12/04 06:43:50;;;;;;;7.85;5.63;;;;;;;;;;5034193;28;20038;-45
2021/12/04 06:46:18;;;;;;;4.07;2.92;;;;;;;;;;5035609;28;20346;-46
2021/12/04 06:49:01;;;;;;;4.05;3.42;;;;;;;;;;5036320;28;20029;-47
2021/12/04 06:51:31;;;;;;;4.07;3.50;;;;;;;;;;5034175;28;20028;-45
2021/12/04 06:54:05;;;;;;;3.90;3.45;;;;;;;;;;5036832;28;20071;-45
2021/12/04 06:56:34;;;;;;;4.80;3.45;;;;;;;;;;5036932;28;20029;-49
2021/12/04 06:59:03;;;;;;;4.03;3.40;;;;;;;;;;5033897;28;20071;-46
2021/12/04 07:01:29;;;;;;;4.90;3.92;;;;;;;;;;5034915;28;20056;-48
2021/12/04 07:03:54;;;;;;;5.28;3.22;;;;;;;;;;5030482;28;20075;-46
2021/12/04 07:06:20;;;;;;;3.25;2.88;;;;;;;;;;5037061;28;20048;-47
2021/12/04 07:08:45;;;;;;;3.78;3.38;;;;;;;;;;5032581;28;20455;-48
2021/12/04 07:11:10;;;;;;;4.70;3.80;;;;;;;;;;5034627;28;20083;-47
2021/12/04 07:13:36;;;;;;;4.93;4.18;;;;;;;;;;5032099;28;20029;-47
2021/12/04 07:16:04;;;;;;;4.35;3.95;;;;;;;;;;5037357;28;20127;-47
2021/12/04 07:18:30;;;;;;;4.28;3.70;;;;;;;;;;5036114;28;20044;-45
2021/12/04 07:20:55;;;;;;;3.60;2.83;;;;;;;;;;5033985;28;20040;-46
2021/12/04 07:23:21;;;;;;;3.88;3.42;;;;;;;;;;5034491;28;20038;-47
2021/12/04 07:25:47;;;;;;;9.50;5.22;;;;;;;;;;5033237;28;20059;-47
2021/12/04 07:28:12;;;;;;;4.18;3.40;;;;;;;;;;5037853;28;20048;-46
2021/12/04 07:30:38;;;;;;;7.13;5.55;;;;;;;;;;5034721;28;20414;-47
2021/12/04 07:33:03;;;;;;;16.88;5.05;;;;;;;;;;5035755;28;20163;-46
2021/12/04 07:35:29;;;;;;;6.28;5.68;;;;;;;;;;5034243;28;20033;-46
2021/12/04 07:37:54;;;;;;;5.85;4.45;;;;;;;;;;5039335;28;20041;-46
2021/12/04 07:40:20;;;;;;;4.97;4.47;;;;;;;;;;5040537;28;20116;-46
2021/12/04 07:42:45;;;;;;;7.07;5.50;;;;;;;;;;5038019;28;20048;-45
2021/12/04 07:45:11;;;;;;;6.40;4.03;;;;;;;;;;5038145;28;20120;-48
2021/12/04 07:47:36;;;;;;;5.03;4.05;;;;;;;;;;5039733;28;20116;-46
2021/12/04 07:50:06;;;;;;;5.85;4.75;;;;;;;;;;5038699;28;20038;-46
2021/12/04 07:52:31;;;;;;;4.45;3.60;;;;;;;;;;5036734;28;20414;-46
2021/12/04 07:54:56;;;;;;;5.53;4.15;;;;;;;;;;5038578;28;20041;-48
2021/12/04 07:57:22;;;;;;;4.20;3.80;;;;;;;;;;5040032;28;20126;-47
2021/12/04 07:59:48;;;;;;;5.13;4.63;;;;;;;;;;5053838;28;20653;-46
2021/12/04 08:02:13;;;;;;;4.20;3.80;;;;;;;;;;5037155;28;20047;-46
2021/12/04 08:04:39;;;;;;;4.13;3.70;;;;;;;;;;5039682;28;20199;-47
2021/12/04 08:07:04;;;;;;;5.82;3.85;;;;;;;;;;5039313;28;20109;-49
2021/12/04 08:09:30;;;;;;;6.22;4.20;;;;;;;;;;5036502;28;20697;-46
2021/12/04 08:11:56;;;;;;;5.03;4.53;;;;;;;;;;5037430;28;20022;-46
2021/12/04 08:14:21;;;;;;;3.40;3.10;;;;;;;;;;5035227;28;20088;-46
2021/12/04 08:16:47;;;;;;;3.47;3.17;;;;;;;;;;5036395;28;20427;-46
2021/12/04 08:19:13;;;;;;;5.32;4.28;;;;;;;;;;5037986;28;20043;-46
2021/12/04 08:21:39;;;;;;;5.10;4.07;;;;;;;;;;5036730;28;20375;-47
2021/12/04 08:24:06;;;;;;;4.28;3.70;;;;;;;;;;5038403;28;20038;-45
2021/12/04 08:26:33;;;;;;;4.70;3.50;;;;;;;;;;5040395;28;20041;-45
2021/12/04 08:28:58;;;;;;;3.78;3.20;;;;;;;;;;5035277;28;20091;-49
2021/12/04 08:31:24;;;;;;;3.70;3.28;;;;;;;;;;5035306;28;20032;-46
2021/12/04 08:33:49;;;;;;;3.75;3.40;;;;;;;;;;5035141;28;20348;-46
2021/12/04 08:36:14;;;;;;;4.85;4.05;;;;;;;;;;5036580;28;20091;-46
2021/12/04 08:38:46;;;;;;;4.10;3.50;;;;;;;;;;5036388;28;20041;-46
2021/12/04 08:41:11;;;;;;;6.35;5.38;;;;;;;;;;5033739;28;20443;-45
2021/12/04 08:43:36;;;;;;;7.25;4.53;;;;;;;;;;5037409;28;20045;-46
2021/12/04 08:46:02;;;;;;;3.72;3.35;;;;;;;;;;5034461;28;20029;-45
2021/12/04 08:48:29;;;;;;;3.78;3.28;;;;;;;;;;5033821;28;20033;-49
2021/12/04 08:50:57;;;;;;;4.43;3.63;;;;;;;;;;5034507;28;20048;-47
2021/12/04 08:53:23;;;;;;;3.90;3.50;;;;;;;;;;5036712;28;20517;-47
2021/12/04 08:55:48;;;;;;;4.97;3.80;;;;;;;;;;5035821;28;20041;-46
2021/12/04 08:58:15;;;;;;;3.30;3.00;;;;;;;;;;5035477;28;20029;-45
2021/12/04 09:00:52;;;;;;;13.23;4.07;;;;;;;;;;5032349;28;20117;-47
2021/12/04 09:03:27;;;;;;;4.68;3.90;;;;;;;;;;5034859;28;20030;-47
2021/12/04 09:05:53;;;;;;;7.57;5.15;;;;;;;;;;5034370;28;20033;-46
2021/12/04 09:08:22;;;;;;;6.53;5.50;;;;;;;;;;5037051;28;20037;-46
2021/12/04 09:10:49;;;;;;;4.53;4.13;;;;;;;;;;5035620;28;20115;-45
2021/12/04 09:13:15;;;;;;;3.60;3.30;;;;;;;;;;5032379;28;20048;-45
2021/12/04 09:15:42;;;;;;;4.70;3.85;;;;;;;;;;5036623;28;20045;-46
2021/12/04 09:18:08;;;;;;;4.75;3.78;;;;;;;;;;5034232;28;20141;-49
2021/12/04 09:20:34;;;;;;;4.05;3.65;;;;;;;;;;5033234;28;20140;-46
2021/12/04 09:23:00;;;;;;;4.68;3.67;;;;;;;;;;5035084;28;20048;-46
2021/12/04 09:25:27;;;;;;;4.63;4.20;;;;;;;;;;5036072;28;20068;-45
2021/12/04 09:28:03;;;;;;;5.43;4.30;;;;;;;;;;5034683;28;20025;-47
2021/12/04 09:36:18;;;;;;;5.68;3.67;;;;;;;;;;5035125;28;20033;-45
2021/12/04 10:16:12;;;;;;;4.43;4.03;;;;;;;;;;5041690;28;20025;-48
2021/12/04 10:34:40;;;;;;;5.03;4.45;;;;;;;;;;5030383;28;20581;-50
2021/12/04 10:37:10;;;;;;;4.15;3.53;;;;;;;;;;5035035;28;20049;-48
2021/12/04 10:39:37;;;;;;;5.78;3.60;;;;;;;;;;5034469;28;20060;-52
2021/12/04 10:42:08;;;;;;;9.20;4.93;;;;;;;;;;5035645;28;20052;-50
2021/12/04 10:44:37;;;;;;;;;;;;;;;;;;5027177;28;20063;-52
2021/12/04 10:47:08;;;;;;;3.78;3.47;;;;;;;;;;5036419;28;19968;-52
2021/12/04 10:49:56;;;;;;;4.38;3.97;;;;;;;;;;5033345;28;20025;-48
2021/12/04 10:55:17;;;;;;;4.95;4.43;;;;;;;;;;5032588;28;20060;-52
2021/12/04 11:02:45;;;;;;;6.68;4.55;;;;;;;;;;5033184;28;20044;-48
2021/12/04 11:22:30;;;;;;;5.30;4.65;;;;;;;;;;5033559;28;20374;-49
2021/12/04 11:25:53;;;;;;;4.72;3.70;;;;;;;;;;5032224;28;20064;-51
2021/12/04 11:42:04;;;;;;;5.25;4.75;;;;;;;;;;5021603;28;20057;-49
2021/12/04 11:44:58;;;;;;;5.38;4.90;;;;;;;;;;5035496;28;20033;-54
2021/12/04 11:47:35;;;;;;;5.32;4.75;;;;;;;;;;5026518;28;20029;-52
2021/12/04 11:50:01;;;;;;;4.80;4.30;;;;;;;;;;5033472;28;20045;-50
2021/12/04 11:52:26;;;;;;;7.47;4.78;;;;;;;;;;5033034;28;20108;-49
2021/12/04 11:54:58;;;;;;;9.18;6.30;;;;;;;;;;5035368;28;20437;-54
2021/12/04 11:57:33;;;;;;;5.88;4.70;;;;;;;;;;5020209;28;20108;-50
2021/12/04 12:00:26;;;;;;;4.32;3.88;;;;;;;;;;5032818;28;20057;-51
2021/12/04 12:03:20;;;;;;;4.53;4.13;;;;;;;;;;5032724;28;20551;-51
2021/12/04 12:05:59;;;;;;;4.90;4.45;;;;;;;;;;5033804;28;20037;-50
2021/12/04 12:08:31;;;;;;;4.47;4.05;;;;;;;;;;5035224;28;20116;-50
2021/12/04 12:11:20;;;;;;;6.30;5.55;;;;;;;;;;5031863;28;20703;-50
2021/12/04 12:13:50;;;;;;;5.15;4.65;;;;;;;;;;5031830;28;20124;-51
2021/12/04 12:16:26;;;;;;;4.78;4.20;;;;;;;;;;5039763;28;20097;-50
2021/12/04 12:18:58;;;;;;;5.20;4.38;;;;;;;;;;5039178;28;20049;-52
2021/12/04 12:21:32;;;;;;;7.18;5.78;;;;;;;;;;5038814;28;20044;-51
2021/12/04 12:38:35;;;;;;;5.22;4.38;;;;;;;;;;5041694;28;20053;-49
2021/12/04 12:41:03;;;;;;;5.80;5.20;;;;;;;;;;5034683;28;20763;-47
2021/12/04 12:43:40;;;;;;;4.82;4.32;;;;;;;;;;5039908;28;20045;-50
2021/12/04 12:46:06;;;;;;;5.20;4.65;;;;;;;;;;5038695;28;20490;-50
2021/12/04 12:48:46;;;;;;;4.72;4.32;;;;;;;;;;5041518;28;20143;-51
2021/12/04 12:51:12;;;;;;;6.68;4.82;;;;;;;;;;5035350;28;20029;-50
2021/12/04 12:53:46;;;;;;;6.90;5.60;;;;;;;;;;5034318;28;20026;-51
2021/12/04 12:56:14;;;;;;;6.80;4.68;;;;;;;;;;5035244;28;20487;-51
2021/12/04 12:58:46;;;;;;;6.43;4.25;;;;;;;;;;5035874;28;20096;-52
2021/12/04 13:11:39;;;;;;;5.00;4.53;;;;;;;;;;5037709;28;20604;-53
2021/12/04 13:12:50;;;;;;;5.57;4.43;;;;;;;;;;5035148;28;20056;-54
2021/12/04 13:15:34;;;;;;;5.95;5.45;;;;;;;;;;5038172;28;20032;-54
2021/12/04 13:18:16;;;;;;;4.53;4.13;;;;;;;;;;5038334;28;20529;-53
2021/12/04 13:20:43;;;;;;;4.95;4.45;;;;;;;;;;5036602;28;20094;-55
2021/12/04 13:23:11;;;;;;;5.25;4.70;;;;;;;;;;5037066;28;20106;-52
2021/12/04 13:25:37;;;;;;;6.70;5.32;;;;;;;;;;5036875;28;20203;-53
2021/12/04 13:30:28;;;;;;;5.95;5.00;;;;;;;;;;5036686;28;20098;-52
2021/12/04 13:32:53;;;;;;;7.55;4.85;;;;;;;;;;5033631;28;20034;-49
2021/12/04 13:35:22;;;;;;;5.18;4.68;;;;;;;;;;5033837;28;20433;-50
2021/12/04 13:37:58;;;;;;;5.82;5.22;;;;;;;;;;5031811;28;20367;-54
2021/12/04 13:40:25;;;;;;;6.03;4.95;;;;;;;;;;5033628;28;20037;-50
2021/12/04 13:42:51;;;;;;;4.70;4.30;;;;;;;;;;5036153;28;20041;-53
2021/12/04 13:45:20;;;;;;;9.23;6.70;;;;;;;;;;5039128;28;20074;-53
2021/12/04 13:47:54;;;;;;;8.07;7.38;;;;;;;;;;5035476;28;20025;-50
2021/12/04 13:52:58;;;;;;;5.85;5.35;;;;;;;;;;5035823;28;20488;-51
2021/12/04 13:55:25;;;;;;;5.50;5.00;;;;;;;;;;5036923;28;20038;-51
2021/12/04 13:57:51;;;;;;;4.72;4.28;;;;;;;;;;5033190;28;20072;-50
2021/12/04 14:00:17;;;;;;;5.22;4.35;;;;;;;;;;5035840;28;20485;-50
2021/12/04 14:02:43;;;;;;;5.03;4.57;;;;;;;;;;5033550;28;20036;-51
2021/12/04 14:05:18;;;;;;;6.95;5.10;;;;;;;;;;5037977;28;20029;-53
2021/12/04 14:08:01;;;;;;;5.15;4.65;;;;;;;;;;5039692;28;20055;-50
2021/12/04 14:10:31;;;;;;;4.68;4.05;;;;;;;;;;5035105;28;20031;-52
2021/12/04 14:12:58;;;;;;;4.53;4.13;;;;;;;;;;5039155;28;20107;-53
2021/12/04 14:15:25;;;;;;;4.97;3.90;;;;;;;;;;5036249;28;20029;-49
2021/12/04 14:17:58;;;;;;;4.30;3.90;;;;;;;;;;5032380;28;20116;-53
2021/12/04 14:20:24;;;;;;;4.95;4.45;;;;;;;;;;5033692;28;20052;-51
2021/12/04 14:22:53;;;;;;;5.75;5.00;;;;;;;;;;5034655;28;20037;-52
2021/12/04 14:25:20;;;;;;;4.72;4.25;;;;;;;;;;5040416;28;20043;-51
2021/12/04 14:27:46;;;;;;;4.88;4.38;;;;;;;;;;5034874;28;20021;-50
2021/12/04 14:30:16;;;;;;;4.82;4.32;;;;;;;;;;5033919;28;20033;-51
2021/12/04 14:32:45;;;;;;;6.40;4.35;;;;;;;;;;5036288;28;20433;-49
2021/12/04 14:35:16;;;;;;;5.03;4.53;;;;;;;;;;5018203;28;20477;-49
2021/12/04 14:37:48;;;;;;;5.20;4.38;;;;;;;;;;5034296;28;20030;-50
2021/12/04 14:40:17;;;;;;;4.72;4.22;;;;;;;;;;5034825;28;20120;-50
2021/12/04 14:42:44;;;;;;;3.80;3.50;;;;;;;;;;5033682;28;20037;-46
2021/12/04 14:45:21;;;;;;;4.38;3.85;;;;;;;;;;5035561;28;20048;-52
2021/12/04 14:47:50;;;;;;;4.88;4.32;;;;;;;;;;5034014;28;20623;-50
2021/12/04 14:50:18;;;;;;;5.38;4.85;;;;;;;;;;5035860;28;20033;-50
2021/12/04 14:52:49;;;;;;;4.45;4.05;;;;;;;;;;5034684;28;20036;-49
2021/12/04 14:55:19;;;;;;;4.88;4.38;;;;;;;;;;5034449;28;20037;-51
2021/12/04 14:57:45;;;;;;;4.05;3.65;;;;;;;;;;5036592;28;20049;-53
2021/12/04 15:00:23;;;;;;;5.63;4.72;;;;;;;;;;5018297;28;20300;-53
2021/12/04 15:03:10;;;;;;;5.07;4.30;;;;;;;;;;5033857;28;20041;-52
2021/12/04 15:05:48;;;;;;;5.20;4.60;;;;;;;;;;5036089;28;20037;-53
2021/12/04 15:08:21;;;;;;;6.38;4.60;;;;;;;;;;5020848;28;20033;-52
2021/12/04 15:10:55;;;;;;;5.05;4.55;;;;;;;;;;5036978;28;20060;-49
2021/12/04 15:13:23;;;;;;;7.35;5.55;;;;;;;;;;5036134;28;20029;-52
2021/12/04 15:15:52;;;;;;;4.80;4.40;;;;;;;;;;5032665;28;20037;-51
2021/12/04 15:18:20;;;;;;;6.53;4.35;;;;;;;;;;5034867;28;20091;-53
2021/12/04 15:21:01;;;;;;;5.88;5.00;;;;;;;;;;5034143;28;20454;-48
2021/12/04 15:23:29;;;;;;;8.70;4.25;;;;;;;;;;5035492;28;20037;-53
2021/12/04 15:25:59;;;;;;;5.72;4.57;;;;;;;;;;5035663;28;20144;-52
2021/12/04 15:28:27;;;;;;;8.00;5.15;;;;;;;;;;5033580;28;20067;-51
2021/12/04 15:30:56;;;;;;;5.53;5.03;;;;;;;;;;5037215;28;20033;-51
2021/12/04 15:33:28;;;;;;;5.38;4.75;;;;;;;;;;5035916;28;20108;-50
2021/12/04 15:35:56;;;;;;;5.07;4.60;;;;;;;;;;5036089;28;20022;-49
2021/12/04 15:38:36;;;;;;;6.43;5.57;;;;;;;;;;5034255;28;20099;-49
2021/12/04 15:43:37;;;;;;;4.15;3.60;;;;;;;;;;5036587;28;20021;-50
2021/12/04 15:46:15;;;;;;;4.82;4.32;;;;;;;;;;5020421;28;20055;-49
2021/12/04 15:49:11;;;;;;;5.40;4.22;;;;;;;;;;5034366;28;20527;-53
2021/12/04 15:52:47;;;;;;;5.57;5.07;;;;;;;;;;5038079;28;20102;-50
2021/12/04 15:54:38;;;;;;;4.45;4.05;;;;;;;;;;5037534;28;20033;-50
2021/12/04 15:57:11;;;;;;;5.05;4.20;;;;;;;;;;5040422;28;20057;-52
2021/12/04 15:59:43;;;;;;;5.40;4.72;;;;;;;;;;5023841;28;20061;-49
2021/12/04 16:02:12;;;;;;;11.57;4.30;;;;;;;;;;5039410;28;20482;-50
2021/12/04 16:04:39;;;;;;;5.80;4.38;;;;;;;;;;5035782;28;20064;-49
2021/12/04 16:07:05;;;;;;;4.10;3.67;;;;;;;;;;5040382;28;20479;-50
2021/12/04 16:09:36;;;;;;;7.93;5.07;;;;;;;;;;5036330;28;20049;-54
2021/12/04 16:12:10;;;;;;;4.40;4.00;;;;;;;;;;5037756;28;20064;-50
2021/12/04 16:14:39;;;;;;;6.07;4.38;;;;;;;;;;5036974;28;20033;-52
2021/12/04 16:17:06;;;;;;;3.90;3.38;;;;;;;;;;5038377;28;20041;-51
2021/12/04 16:19:33;;;;;;;4.82;4.07;;;;;;;;;;5036711;28;20116;-50
2021/12/04 16:22:02;;;;;;;4.22;3.83;;;;;;;;;;5037576;28;20041;-51
2021/12/04 16:24:30;;;;;;;6.65;4.70;;;;;;;;;;5040689;28;20423;-53
2021/12/04 16:27:06;;;;;;;6.93;4.05;;;;;;;;;;5040289;28;20037;-52
2021/12/04 16:29:36;;;;;;;4.40;4.00;;;;;;;;;;5039630;28;20103;-48
2021/12/04 16:37:45;;;;;;;5.05;4.55;;;;;;;;;;5038703;28;20052;-48
2021/12/04 16:40:34;;;;;;;4.25;3.85;;;;;;;;;;5036697;28;20377;-53
2021/12/04 16:43:08;;;;;;;5.47;4.60;;;;;;;;;;5038948;28;20033;-49
2021/12/04 16:45:35;;;;;;;4.78;3.78;;;;;;;;;;5038261;28;20045;-52
2021/12/04 16:48:06;;;;;;;5.47;4.97;;;;;;;;;;5038951;28;20061;-52
2021/12/04 16:54:53;;;;;;;5.35;4.72;;;;;;;;;;5037375;28;20040;-50
2021/12/04 16:58:53;;;;;;;4.65;3.92;;;;;;;;;;5037998;28;20040;-52
2021/12/04 17:01:19;;;;;;;6.68;4.63;;;;;;;;;;5036133;28;20128;-52
2021/12/04 17:03:45;;;;;;;3.30;3.00;;;;;;;;;;5039552;28;20132;-52
2021/12/04 17:06:11;;;;;;;5.55;5.05;;;;;;;;;;5036407;28;20033;-52
2021/12/04 17:08:36;;;;;;;7.13;5.13;;;;;;;;;;5036095;28;20041;-50
2021/12/04 17:11:03;;;;;;;6.50;4.63;;;;;;;;;;5038481;28;20029;-49
2021/12/04 17:13:30;;;;;;;5.32;4.65;;;;;;;;;;5038894;28;20585;-51
2021/12/04 17:15:57;;;;;;;4.95;4.53;;;;;;;;;;5037257;28;20039;-50
2021/12/04 17:18:25;;;;;;;4.50;3.88;;;;;;;;;;5037713;28;20037;-50
2021/12/04 17:20:53;;;;;;;5.47;4.63;;;;;;;;;;5036786;28;20463;-49
2021/12/04 17:23:22;;;;;;;5.22;4.07;;;;;;;;;;5036512;28;20045;-50
2021/12/04 17:25:48;;;;;;;6.53;4.63;;;;;;;;;;5038392;28;20030;-53
2021/12/04 17:28:14;;;;;;;4.15;3.75;;;;;;;;;;5038118;28;20017;-53
2021/12/04 17:30:40;;;;;;;3.97;3.58;;;;;;;;;;5035746;28;20040;-50
2021/12/04 17:33:07;;;;;;;5.22;4.20;;;;;;;;;;5034792;28;20029;-52
2021/12/04 17:35:34;;;;;;;4.10;3.50;;;;;;;;;;5037782;28;20118;-53
2021/12/04 17:38:00;;;;;;;4.55;4.15;;;;;;;;;;5040142;28;20079;-48
2021/12/04 17:40:28;;;;;;;6.18;5.03;;;;;;;;;;5033841;28;20040;-53
2021/12/04 17:42:53;;;;;;;4.25;3.85;;;;;;;;;;5034059;28;20037;-53
2021/12/04 17:45:21;;;;;;;4.57;4.15;;;;;;;;;;5035172;28;20091;-50
2021/12/04 17:47:49;;;;;;;5.38;4.38;;;;;;;;;;5039250;28;20080;-50
2021/12/04 17:50:25;;;;;;;5.38;4.88;;;;;;;;;;5034460;28;20060;-52
2021/12/04 17:52:55;;;;;;;3.97;3.58;;;;;;;;;;5036605;28;20044;-52
2021/12/04 17:55:22;;;;;;;4.22;3.72;;;;;;;;;;5035094;28;20052;-49
2021/12/04 17:57:47;;;;;;;4.32;3.80;;;;;;;;;;5033685;28;20053;-52
2021/12/04 18:00:21;;;;;;;4.68;4.07;;;;;;;;;;5035932;28;20068;-52
2021/12/04 18:02:49;;;;;;;3.72;3.35;;;;;;;;;;5035520;28;20033;-52
2021/12/04 18:05:16;;;;;;;4.70;4.05;;;;;;;;;;5037323;28;20044;-52
2021/12/04 18:07:43;;;;;;;4.18;3.78;;;;;;;;;;5038551;28;20021;-52